createdAt,value
2023-05-03T00:03:53.492Z,3.91
2023-05-03T00:08:56.298Z,4.05
2023-05-03T00:13:59.477Z,4.13
2023-05-03T00:19:02.325Z,4.14
2023-05-03T00:24:05.702Z,4.10
2023-05-03T00:29:08.559Z,4.30
2023-05-03T00:34:11.505Z,4.62
2023-05-03T00:39:14.547Z,5.04
2023-05-03T00:44:17.428Z,4.98
2023-05-03T00:49:20.949Z,4.98
2023-05-03T00:54:23.883Z,5.18
2023-05-03T00:59:26.933Z,5.28
2023-05-03T01:04:30.530Z,5.56
2023-05-03T01:09:45.120Z,5.63
2023-05-03T01:14:56.582Z,5.76
2023-05-03T01:20:06.580Z,5.37
2023-05-03T01:25:10.888Z,5.03
2023-05-03T01:30:14.705Z,4.83
2023-05-03T01:35:34.610Z,4.76
2023-05-03T01:40:47.307Z,4.59
2023-05-03T01:45:50.472Z,4.79
2023-05-03T01:50:53.448Z,4.91
2023-05-03T01:55:56.267Z,5.00
2023-05-03T02:00:59.275Z,4.99
2023-05-03T02:06:02.282Z,5.09
2023-05-03T02:11:05.170Z,5.25
2023-05-03T02:16:09.942Z,5.27
2023-05-03T02:21:13.609Z,5.44
2023-05-03T02:26:16.528Z,5.53
2023-05-03T02:31:19.406Z,5.69
2023-05-03T02:36:24.026Z,5.71
2023-05-03T02:41:27.604Z,6.06
2023-05-03T02:46:31.579Z,6.21
2023-05-03T02:51:34.726Z,6.35
2023-05-03T02:56:39.333Z,6.55
2023-05-03T03:01:42.494Z,6.62
2023-05-03T03:06:46.016Z,6.77
2023-05-03T03:11:53.664Z,6.93
2023-05-03T03:16:58.313Z,7.12
2023-05-03T03:22:01.864Z,7.29
2023-05-03T03:27:05.860Z,7.46
2023-05-03T03:32:09.839Z,7.67
2023-05-03T03:37:12.838Z,7.81
2023-05-03T03:42:19.124Z,7.98
2023-05-03T03:47:24.057Z,8.12
2023-05-03T03:52:28.739Z,8.25
2023-05-03T03:57:32.033Z,8.44
2023-05-03T04:02:35.365Z,8.61
2023-05-03T04:07:38.389Z,8.82
2023-05-03T04:12:41.858Z,8.97
2023-05-03T04:17:44.977Z,9.03
2023-05-03T04:22:47.929Z,9.20
2023-05-03T04:27:53.178Z,9.35
2023-05-03T04:32:58.781Z,9.38
2023-05-03T04:38:06.109Z,9.50
2023-05-03T04:43:09.563Z,9.71
2023-05-03T04:48:18.497Z,9.93
2023-05-03T04:53:22.001Z,10.04
2023-05-03T04:58:34.551Z,10.43
2023-05-03T05:03:37.908Z,10.56
2023-05-03T05:08:46.585Z,10.65
2023-05-03T05:13:52.574Z,11.35
2023-05-03T05:18:55.396Z,11.79
2023-05-03T05:24:02.358Z,11.83
2023-05-03T05:29:05.786Z,12.03
2023-05-03T05:34:08.697Z,12.16
2023-05-03T05:39:12.827Z,12.54
2023-05-03T05:44:18.964Z,13.10
2023-05-03T05:49:25.145Z,13.32
2023-05-03T05:54:28.713Z,13.29
2023-05-03T05:59:33.864Z,13.17
2023-05-03T06:04:37.234Z,13.49
2023-05-03T06:09:40.385Z,13.54
2023-05-03T06:14:55.360Z,13.20
2023-05-03T06:20:12.277Z,12.83
2023-05-03T06:25:18.050Z,12.86
2023-05-03T06:30:26.212Z,13.72
2023-05-03T06:35:29.926Z,14.31
2023-05-03T06:40:34.123Z,13.77
2023-05-03T06:45:43.148Z,13.13
2023-05-03T06:50:46.491Z,12.90
2023-05-03T06:55:49.381Z,13.80
2023-05-03T07:00:55.384Z,14.33
2023-05-03T07:05:58.124Z,14.10
2023-05-03T07:11:01.253Z,14.14
2023-05-03T07:16:04.531Z,13.50
2023-05-03T07:21:09.321Z,13.37
2023-05-03T07:26:12.665Z,13.90
2023-05-03T07:31:16.073Z,14.42
2023-05-03T07:36:19.066Z,13.85
2023-05-03T07:41:21.938Z,13.04
2023-05-03T07:46:24.951Z,12.51
2023-05-03T07:51:29.224Z,12.90
2023-05-03T07:56:32.409Z,13.48
2023-05-03T08:01:35.433Z,14.12
2023-05-03T08:06:39.091Z,13.97
2023-05-03T08:11:44.127Z,13.51
2023-05-03T08:16:47.312Z,13.67
2023-05-03T08:21:50.377Z,13.48
2023-05-03T08:27:00.377Z,13.55
2023-05-03T08:32:04.756Z,13.54
2023-05-03T08:37:11.422Z,13.37
2023-05-03T08:42:16.614Z,14.24
2023-05-03T08:47:19.672Z,14.67
2023-05-03T08:52:24.200Z,13.43
2023-05-03T08:57:28.097Z,12.91
2023-05-03T09:02:35.179Z,12.68
2023-05-03T09:07:38.472Z,12.67
2023-05-03T09:12:42.355Z,13.07
2023-05-03T09:17:45.367Z,13.26
2023-05-03T09:22:52.843Z,13.25
2023-05-03T09:28:02.601Z,14.03
2023-05-03T09:33:05.508Z,14.36
2023-05-03T09:38:08.737Z,13.69
2023-05-03T09:43:12.606Z,12.97
2023-05-03T09:48:17.012Z,12.67
2023-05-03T09:53:20.973Z,12.94
2023-05-03T09:58:26.227Z,13.46
2023-05-03T10:03:52.687Z,13.37
2023-05-03T10:09:28.229Z,13.38
2023-05-03T10:14:31.227Z,13.19
2023-05-03T10:19:38.308Z,13.19
2023-05-03T10:25:02.917Z,13.29
2023-05-03T10:30:10.502Z,13.22
2023-05-03T10:35:18.041Z,13.28
2023-05-03T10:40:22.713Z,13.20
2023-05-03T10:45:30.089Z,13.12
2023-05-03T10:50:33.130Z,13.00
2023-05-03T10:55:36.340Z,13.00
2023-05-03T11:00:42.201Z,12.91
2023-05-03T11:05:45.754Z,12.98
2023-05-03T11:10:51.038Z,12.95
2023-05-03T11:15:55.328Z,12.92
2023-05-03T11:20:58.634Z,12.93
2023-05-03T11:26:01.608Z,12.99
2023-05-03T11:31:06.881Z,12.85
2023-05-03T11:36:10.534Z,12.82
2023-05-03T11:41:18.262Z,12.81
2023-05-03T11:46:27.021Z,12.70
2023-05-03T11:51:30.354Z,12.66
2023-05-03T11:56:35.877Z,12.66
2023-05-03T12:01:38.797Z,12.67
2023-05-03T12:06:43.548Z,12.74
2023-05-03T12:11:51.655Z,12.81
2023-05-03T12:16:56.953Z,12.70
2023-05-03T12:22:22.473Z,12.61
2023-05-03T12:27:23.915Z,13.09
2023-05-03T12:32:31.774Z,13.08
2023-05-03T12:37:38.308Z,13.38
2023-05-03T12:42:43.366Z,14.26
2023-05-03T12:47:50.006Z,13.44
2023-05-03T12:52:53.512Z,12.80
2023-05-03T12:58:18.237Z,12.37
2023-05-03T13:03:21.842Z,12.05
2023-05-03T13:08:33.635Z,12.85
2023-05-03T13:13:37.287Z,15.21
2023-05-03T13:18:40.167Z,16.58
2023-05-03T13:23:43.018Z,17.10
2023-05-03T13:28:46.172Z,16.94
2023-05-03T13:33:49.624Z,14.78
2023-05-03T13:38:52.648Z,13.26
2023-05-03T13:43:55.676Z,12.18
2023-05-03T13:48:59.320Z,11.69
2023-05-03T13:54:04.375Z,11.51
2023-05-03T13:59:08.551Z,11.01
2023-05-03T14:04:11.727Z,10.64
2023-05-03T14:09:15.420Z,10.27
2023-05-03T14:14:18.524Z,10.05
2023-05-03T14:19:21.549Z,9.73
2023-05-03T14:24:24.428Z,9.63
2023-05-03T14:29:27.718Z,9.44
2023-05-03T14:34:30.843Z,9.07
2023-05-03T14:39:33.684Z,8.71
2023-05-03T14:44:36.736Z,8.40
2023-05-03T14:49:42.464Z,8.25
2023-05-03T14:54:45.401Z,7.99
2023-05-03T14:59:48.847Z,7.76
2023-05-03T15:04:51.693Z,7.49
2023-05-03T15:09:54.689Z,7.32
2023-05-03T15:14:57.873Z,7.10
2023-05-03T15:20:02.001Z,6.94
2023-05-03T15:25:07.382Z,6.87
2023-05-03T15:30:12.855Z,6.76
2023-05-03T15:35:16.076Z,6.87
2023-05-03T15:40:19.358Z,6.97
2023-05-03T15:45:28.628Z,7.03
2023-05-03T15:50:31.735Z,6.83
2023-05-03T15:55:34.788Z,6.62
2023-05-03T16:00:38.386Z,6.55
2023-05-03T16:05:41.216Z,6.41
2023-05-03T16:10:44.224Z,6.33
2023-05-03T16:15:47.978Z,6.28
2023-05-03T16:20:51.634Z,6.32
2023-05-03T16:25:54.699Z,6.26
2023-05-03T16:30:57.617Z,6.12
2023-05-03T16:36:00.523Z,5.92
2023-05-03T16:41:03.669Z,5.95
2023-05-03T16:46:07.708Z,5.71
2023-05-03T16:51:10.533Z,5.69
2023-05-03T16:56:13.695Z,5.66
2023-05-03T17:01:16.861Z,5.52
2023-05-03T17:06:20.117Z,5.53
2023-05-03T17:11:23.377Z,5.52
2023-05-03T17:16:26.812Z,5.50
2023-05-03T17:21:29.719Z,5.39
2023-05-03T17:26:32.928Z,5.31
2023-05-03T17:31:35.858Z,5.23
2023-05-03T17:36:38.757Z,5.14
2023-05-03T17:41:41.704Z,5.03
2023-05-03T17:46:45.045Z,4.90
2023-05-03T17:51:48.161Z,4.92
2023-05-03T17:56:51.428Z,4.81
2023-05-03T18:01:54.659Z,4.69
2023-05-03T18:06:58.049Z,4.59
2023-05-03T18:12:02.233Z,4.64
2023-05-03T18:17:05.363Z,4.60
2023-05-03T18:22:08.561Z,4.63
2023-05-03T18:27:13.167Z,4.57
2023-05-03T18:32:16.628Z,4.27
2023-05-03T18:37:19.838Z,4.06
2023-05-03T18:42:23.680Z,4.05
2023-05-03T18:47:26.649Z,4.05
2023-05-03T18:52:29.579Z,4.03
2023-05-03T18:57:32.577Z,3.91
2023-05-03T19:02:36.540Z,3.76
2023-05-03T19:07:43.124Z,3.78
2023-05-03T19:12:46.846Z,3.61
2023-05-03T19:17:50.046Z,3.31
2023-05-03T19:22:53.022Z,3.22
2023-05-03T19:27:55.904Z,3.15
2023-05-03T19:32:58.891Z,2.94
2023-05-03T19:38:01.812Z,2.92
2023-05-03T19:43:05.250Z,2.95
2023-05-03T19:48:10.648Z,2.87
2023-05-03T19:53:13.303Z,2.84
2023-05-03T19:58:16.323Z,2.85
2023-05-03T20:03:19.735Z,2.75
2023-05-03T20:08:22.922Z,2.46
2023-05-03T20:13:28.027Z,2.47
2023-05-03T20:18:31.164Z,2.57
2023-05-03T20:23:33.995Z,2.54
2023-05-03T20:28:36.888Z,2.50
2023-05-03T20:33:39.644Z,2.42
2023-05-03T20:38:42.602Z,2.32
2023-05-03T20:43:45.480Z,2.03
2023-05-03T20:48:48.519Z,1.87
2023-05-03T20:53:51.449Z,1.69
2023-05-03T20:58:54.273Z,1.71
2023-05-03T21:03:57.326Z,1.77
2023-05-03T21:09:00.191Z,1.83
2023-05-03T21:14:03.225Z,1.74
2023-05-03T21:19:11.251Z,1.58
2023-05-03T21:24:14.181Z,1.46
2023-05-03T21:29:17.691Z,1.41
2023-05-03T21:34:20.699Z,1.37
2023-05-03T21:39:23.868Z,1.39
2023-05-03T21:44:26.930Z,1.34
2023-05-03T21:49:29.745Z,1.31
2023-05-03T21:54:32.766Z,1.15
2023-05-03T21:59:36.083Z,1.03
2023-05-03T22:04:39.201Z,0.99
2023-05-03T22:09:42.096Z,0.96
2023-05-03T22:14:44.962Z,1.02
2023-05-03T22:19:47.794Z,1.01
2023-05-03T22:24:51.020Z,0.85
2023-05-03T22:29:53.881Z,0.52
2023-05-03T22:34:56.779Z,0.40
2023-05-03T22:40:00.394Z,0.33
2023-05-03T22:45:03.779Z,0.34
2023-05-03T22:50:07.981Z,0.48
2023-05-03T22:55:11.026Z,0.50
2023-05-03T23:00:14.389Z,0.53
2023-05-03T23:05:17.447Z,0.69
2023-05-03T23:10:20.347Z,0.91
2023-05-03T23:15:26.120Z,1.17
2023-05-03T23:20:29.425Z,1.41
2023-05-03T23:25:32.392Z,1.64
2023-05-03T23:30:35.567Z,1.90
2023-05-03T23:35:38.934Z,2.09
2023-05-03T23:40:42.068Z,2.24
2023-05-03T23:45:45.005Z,2.45
2023-05-03T23:50:47.969Z,2.71
2023-05-03T23:55:51.237Z,2.87
